Time;durP1;ratioP1;P1;durP2;ratioP2;P2;SDS_P1;SDS_P2;PMS_P1;PMS_P2;Temp;Humidity;BMP_temperature;BMP_pressure;BME280_temperature;BME280_humidity;BME280_pressure;Samples;Min_cycle;Max_cycle;Signal;HPM_P1;HPM_P2
2022/01/17 00:01:49;;;;;;;16.80;7.93;;;;;;;-145.69;100.00;73812.84;5136306;27;20578;-82
2022/01/17 00:04:16;;;;;;;16.93;6.70;;;;;;;-145.69;100.00;73810.84;5136263;27;20201;-82
2022/01/17 00:06:43;;;;;;;19.60;7.53;;;;;;;-145.69;100.00;73802.88;5124524;27;20232;-82
2022/01/17 00:09:10;;;;;;;16.33;7.70;;;;;;;-145.69;100.00;73814.84;5115447;28;20208;-82
2022/01/17 00:11:42;;;;;;;21.30;8.07;;;;;;;-145.69;100.00;73820.81;5115579;28;20202;-82
2022/01/17 00:14:12;;;;;;;16.33;7.60;;;;;;;-145.69;100.00;73830.75;5115152;28;20653;-82
2022/01/17 00:16:43;;;;;;;17.87;7.80;;;;;;;-145.69;100.00;73834.75;5118918;27;20221;-82
2022/01/17 00:21:52;;;;;;;17.27;7.67;;;;;;;-145.69;100.00;73834.75;5132853;27;20228;-83
2022/01/17 00:24:19;;;;;;;17.13;8.67;;;;;;;-145.69;100.00;73842.72;5135777;27;20200;-82
2022/01/17 00:26:46;;;;;;;18.93;8.00;;;;;;;-145.69;100.00;73838.72;5135534;27;20235;-82
2022/01/17 00:29:13;;;;;;;16.27;7.33;;;;;;;-145.69;100.00;73838.72;5135704;27;20205;-82
2022/01/17 00:31:40;;;;;;;19.20;8.60;;;;;;;-145.69;100.00;73842.72;5135707;27;20201;-82
2022/01/17 00:34:06;;;;;;;17.10;7.53;;;;;;;-145.69;100.00;73844.69;5135540;27;20197;-82
2022/01/17 00:36:34;;;;;;;15.07;7.40;;;;;;;-145.69;100.00;73842.72;5135340;27;20229;-82
2022/01/17 00:39:00;;;;;;;15.90;7.13;;;;;;;-145.69;100.00;73836.75;5135252;27;20205;-82
2022/01/17 00:41:27;;;;;;;15.93;7.53;;;;;;;-145.69;100.00;73848.69;5135694;27;20257;-82
2022/01/17 00:43:53;;;;;;;14.40;7.03;;;;;;;-145.69;100.00;73854.66;5135350;27;20204;-82
2022/01/17 00:46:20;;;;;;;18.03;7.90;;;;;;;-145.69;100.00;73856.66;5135285;27;20251;-82
2022/01/17 00:48:46;;;;;;;15.10;7.20;;;;;;;-145.69;100.00;73858.63;5135273;27;20197;-82
2022/01/17 00:51:12;;;;;;;19.23;7.77;;;;;;;-145.69;100.00;73862.63;5135418;27;20605;-82
2022/01/17 00:53:41;;;;;;;16.83;7.73;;;;;;;-145.69;100.00;73874.56;5135045;27;20253;-82
2022/01/17 00:56:07;;;;;;;20.10;7.50;;;;;;;-145.69;100.00;73868.59;5135183;27;20253;-82
2022/01/17 00:58:34;;;;;;;20.23;7.67;;;;;;;-145.69;100.00;73866.59;5135065;27;20204;-81
2022/01/17 01:01:01;;;;;;;15.90;7.83;;;;;;;-145.69;100.00;73866.59;5135094;27;20700;-82
2022/01/17 01:03:28;;;;;;;16.77;7.50;;;;;;;-145.69;100.00;73858.63;5134520;27;20619;-82
2022/01/17 01:05:54;;;;;;;15.27;7.13;;;;;;;-145.69;100.00;73848.69;5134734;27;20629;-82
2022/01/17 01:08:21;;;;;;;21.37;8.00;;;;;;;-145.69;100.00;73848.69;5134659;27;20211;-82
2022/01/17 01:10:48;;;;;;;17.83;7.70;;;;;;;-145.69;100.00;73856.66;5134658;27;20651;-82
2022/01/17 01:13:17;;;;;;;17.53;7.47;;;;;;;-145.69;100.00;73870.59;5135044;27;20196;-82
2022/01/17 01:15:47;;;;;;;18.23;7.70;;;;;;;-145.69;100.00;73882.53;5135067;27;20208;-82
2022/01/17 01:18:17;;;;;;;17.80;7.80;;;;;;;-145.69;100.00;73888.50;5134637;27;20225;-82
2022/01/17 01:28:57;;;;;;;14.97;6.87;;;;;;;-145.69;100.00;73878.56;5134472;27;20196;-82
2022/01/17 01:31:37;;;;;;;15.43;7.17;;;;;;;-145.69;100.00;73870.59;5134264;27;20207;-82
2022/01/17 01:34:06;;;;;;;15.00;6.57;;;;;;;-145.69;100.00;73882.53;5134486;27;20200;-82
2022/01/17 01:36:33;;;;;;;17.17;7.40;;;;;;;-145.69;100.00;73870.59;5134227;27;20583;-82
2022/01/17 01:39:00;;;;;;;13.27;7.00;;;;;;;-145.69;100.00;73872.56;5134327;27;20201;-83
2022/01/17 01:41:28;;;;;;;14.93;6.43;;;;;;;-145.69;100.00;73862.63;5134295;27;20201;-82
2022/01/17 01:43:55;;;;;;;15.43;7.13;;;;;;;-145.69;100.00;73862.63;5134094;27;20192;-82
2022/01/17 01:46:23;;;;;;;17.27;7.00;;;;;;;-145.69;100.00;73872.56;5134180;27;20268;-82
2022/01/17 01:48:49;;;;;;;15.63;7.27;;;;;;;-145.69;100.00;73860.63;5134182;27;20292;-82
2022/01/17 01:51:16;;;;;;;16.30;6.67;;;;;;;-145.69;100.00;73862.63;5134306;27;20192;-82
2022/01/17 01:53:43;;;;;;;14.30;6.33;;;;;;;-145.69;100.00;73860.63;5134220;27;20240;-82
2022/01/17 01:56:09;;;;;;;16.33;6.67;;;;;;;-145.69;100.00;73854.66;5133855;27;20208;-82
2022/01/17 01:58:40;;;;;;;15.83;6.93;;;;;;;-145.69;100.00;73856.66;5133923;27;20198;-81
2022/01/17 02:01:06;;;;;;;13.20;6.20;;;;;;;-145.69;100.00;73862.63;5133936;27;20674;-82
2022/01/17 02:03:33;;;;;;;12.20;6.20;;;;;;;-145.69;100.00;73862.63;5134070;27;20192;-82
2022/01/17 02:05:59;;;;;;;10.97;5.30;;;;;;;-145.69;100.00;73878.56;5133053;27;20220;-81
2022/01/17 02:08:27;;;;;;;11.57;5.80;;;;;;;-145.69;100.00;73858.63;5130167;27;20647;-81
2022/01/17 02:10:54;;;;;;;15.50;5.30;;;;;;;-145.69;100.00;73844.69;5133771;27;20271;-81
2022/01/17 02:13:20;;;;;;;13.97;5.53;;;;;;;-145.69;100.00;73826.78;5133754;27;20212;-81
2022/01/17 02:15:49;;;;;;;10.27;5.23;;;;;;;-145.69;100.00;73828.78;5132920;27;20208;-81
2022/01/17 02:18:28;;;;;;;12.50;5.20;;;;;;;-145.69;100.00;73820.81;5133587;28;20434;-81
2022/01/17 02:21:11;;;;;;;8.80;4.53;;;;;;;-145.69;100.00;73822.81;5134030;28;20559;-81
2022/01/17 02:23:37;;;;;;;9.93;4.53;;;;;;;-145.69;100.00;73820.81;5133531;28;20192;-81
2022/01/17 02:26:04;;;;;;;8.40;4.63;;;;;;;-145.69;100.00;73826.78;5133531;28;20277;-81
2022/01/17 02:28:33;;;;;;;8.23;4.30;;;;;;;-145.69;100.00;73842.72;5133947;28;20204;-81
2022/01/17 02:30:59;;;;;;;13.48;5.38;;;;;;;-145.69;100.00;73846.69;5133488;28;20884;-81
2022/01/17 02:33:26;;;;;;;10.33;4.83;;;;;;;-145.69;100.00;73856.66;5133644;28;20201;-81
2022/01/17 02:35:52;;;;;;;11.57;4.57;;;;;;;-145.69;100.00;73858.63;5133449;28;20232;-81
2022/01/17 02:38:20;;;;;;;9.77;5.03;;;;;;;-145.69;100.00;73858.63;5133539;28;20601;-81
2022/01/17 02:40:46;;;;;;;9.27;4.73;;;;;;;-145.69;100.00;73850.69;5133501;28;20200;-81
2022/01/17 02:43:14;;;;;;;8.67;4.87;;;;;;;-145.69;100.00;73842.72;5133614;28;20207;-81
2022/01/17 02:48:22;;;;;;;10.53;4.53;;;;;;;-145.69;100.00;73834.75;5133179;28;20197;-81
2022/01/17 02:50:49;;;;;;;7.60;4.03;;;;;;;-145.69;100.00;73828.78;5133614;28;20205;-81
2022/01/17 02:53:17;;;;;;;8.80;3.83;;;;;;;-145.69;100.00;73830.75;5133527;28;20201;-81
2022/01/17 02:55:48;;;;;;;7.60;3.90;;;;;;;-145.69;100.00;73830.75;5133351;28;20197;-81
2022/01/17 02:58:15;;;;;;;10.43;4.10;;;;;;;-145.69;100.00;73820.81;5133412;27;20601;-80
2022/01/17 03:00:41;;;;;;;8.57;4.23;;;;;;;-145.69;100.00;73828.78;5133318;28;20245;-81
2022/01/17 03:03:13;;;;;;;9.33;4.20;;;;;;;-145.69;100.00;73838.72;5133479;28;20536;-81
2022/01/17 03:05:40;;;;;;;8.07;3.90;;;;;;;-145.69;100.00;73842.72;5133506;28;20250;-81
2022/01/17 03:08:06;;;;;;;7.50;3.33;;;;;;;-145.69;100.00;73842.72;5133450;28;20193;-81
2022/01/17 03:10:39;;;;;;;9.63;4.20;;;;;;;-145.69;100.00;73834.75;5133296;28;20201;-81
2022/01/17 03:13:10;;;;;;;9.53;4.07;;;;;;;-145.69;100.00;73854.66;5133168;28;20201;-80
2022/01/17 03:15:37;;;;;;;10.83;4.40;;;;;;;-145.69;100.00;73882.53;5133405;28;20203;-81
2022/01/17 03:18:04;;;;;;;6.60;3.90;;;;;;;-145.69;100.00;73866.59;5133219;28;20200;-81
2022/01/17 03:20:31;;;;;;;8.97;3.27;;;;;;;-145.69;100.00;73830.75;5133228;28;20224;-80
2022/01/17 03:22:58;;;;;;;8.03;3.47;;;;;;;-145.69;100.00;73814.84;5133154;28;20652;-80
2022/01/17 03:25:24;;;;;;;10.53;4.07;;;;;;;-145.69;100.00;73794.94;5133714;27;20555;-81
2022/01/17 03:27:51;;;;;;;7.70;3.77;;;;;;;-145.69;100.00;73777.00;5136694;27;20216;-80
2022/01/17 03:30:19;;;;;;;11.77;4.50;;;;;;;-145.69;100.00;73786.97;5136918;27;20200;-81
2022/01/17 03:32:46;;;;;;;10.93;4.63;;;;;;;-145.69;100.00;73794.94;5136784;27;20570;-81
2022/01/17 03:35:13;;;;;;;9.03;4.07;;;;;;;-145.69;100.00;73790.94;5136879;27;20250;-81
2022/01/17 03:37:39;;;;;;;9.90;4.10;;;;;;;-145.69;100.00;73802.88;5136524;27;20243;-81
2022/01/17 03:40:07;;;;;;;10.27;4.53;;;;;;;-145.69;100.00;73806.88;5136510;27;20209;-81
2022/01/17 03:42:35;;;;;;;11.10;4.80;;;;;;;-145.69;100.00;73816.81;5136507;27;20652;-81
2022/01/17 03:45:03;;;;;;;10.00;4.90;;;;;;;-145.69;100.00;73826.78;5136349;27;20754;-81
2022/01/17 03:47:31;;;;;;;8.47;4.60;;;;;;;-145.69;100.00;73830.75;5136543;27;20260;-81
2022/01/17 03:49:58;;;;;;;8.10;4.17;;;;;;;-145.69;100.00;73838.72;5136373;27;20192;-81
2022/01/17 03:52:24;;;;;;;10.67;4.60;;;;;;;-145.69;100.00;73840.72;5136451;27;20193;-81
2022/01/17 03:54:50;;;;;;;10.07;4.90;;;;;;;-145.69;100.00;73836.75;5136220;27;20201;-81
2022/01/17 03:57:17;;;;;;;9.07;4.27;;;;;;;-145.69;100.00;73830.75;5136421;27;20200;-81
2022/01/17 03:59:43;;;;;;;10.07;4.53;;;;;;;-145.69;100.00;73824.78;5136147;27;20701;-81
2022/01/17 04:02:10;;;;;;;8.57;4.53;;;;;;;-145.69;100.00;73824.78;5136330;27;20253;-81
2022/01/17 04:04:37;;;;;;;10.10;4.93;;;;;;;-145.69;100.00;73826.78;5136218;27;20213;-81
2022/01/17 04:07:04;;;;;;;8.87;4.43;;;;;;;-145.69;100.00;73828.78;5136069;27;20236;-81
2022/01/17 04:09:30;;;;;;;11.70;5.10;;;;;;;-145.69;100.00;73826.78;5135835;27;20544;-81
2022/01/17 04:11:57;;;;;;;10.40;4.63;;;;;;;-145.69;100.00;73830.75;5136198;27;20200;-82
2022/01/17 04:14:24;;;;;;;9.40;4.67;;;;;;;-145.69;100.00;73830.75;5135808;27;20651;-81
2022/01/17 04:16:50;;;;;;;11.57;4.90;;;;;;;-145.69;100.00;73824.78;5132788;27;20672;-82
2022/01/17 04:19:18;;;;;;;13.60;5.00;;;;;;;-145.69;100.00;73832.75;5135902;27;20197;-82
2022/01/17 04:21:47;;;;;;;8.80;4.60;;;;;;;-145.69;100.00;73834.75;5135791;27;20197;-82
2022/01/17 04:24:14;;;;;;;10.90;4.87;;;;;;;-145.69;100.00;73842.72;5135665;27;20678;-82
2022/01/17 04:26:42;;;;;;;10.50;4.97;;;;;;;-145.69;100.00;73850.69;5134558;27;20224;-81
2022/01/17 04:29:09;;;;;;;9.40;4.47;;;;;;;-145.69;100.00;73846.69;5135662;27;20197;-81
2022/01/17 04:31:35;;;;;;;8.87;4.47;;;;;;;-145.69;100.00;73846.69;5135695;27;20544;-82
2022/01/17 04:34:01;;;;;;;12.03;4.87;;;;;;;-145.69;100.00;73842.72;5135514;27;20196;-82
2022/01/17 04:36:28;;;;;;;9.17;4.97;;;;;;;-145.69;100.00;73838.72;5135146;27;20278;-82
2022/01/17 04:38:56;;;;;;;10.23;4.70;;;;;;;-145.69;100.00;73854.66;5134736;27;20201;-81
2022/01/17 04:41:36;;;;;;;13.13;4.80;;;;;;;-145.69;100.00;73862.63;5135623;27;20559;-82
2022/01/17 04:45:07;;;;;;;11.67;4.93;;;;;;;-145.69;100.00;73870.59;5135555;27;20200;-81
2022/01/17 04:46:50;;;;;;;12.17;5.53;;;;;;;-145.69;100.00;73878.56;5134946;27;20224;-81
2022/01/17 04:49:17;;;;;;;9.90;4.30;;;;;;;-145.69;100.00;73868.59;5135179;27;20200;-81
2022/01/17 04:51:45;;;;;;;9.27;4.43;;;;;;;-145.69;100.00;73858.63;5135208;27;20197;-81
2022/01/17 04:54:37;;;;;;;8.40;4.33;;;;;;;-145.69;100.00;73854.66;5135285;27;20228;-82
2022/01/17 04:57:04;;;;;;;10.77;4.63;;;;;;;-145.69;100.00;73862.63;5135074;27;20580;-81
2022/01/17 04:59:30;;;;;;;9.53;4.30;;;;;;;-145.69;100.00;73862.63;5134926;27;20200;-81
2022/01/17 05:01:57;;;;;;;7.53;4.33;;;;;;;-145.69;100.00;73870.59;5134945;27;20547;-81
2022/01/17 05:04:23;;;;;;;13.03;4.73;;;;;;;-145.69;100.00;73868.59;5135086;27;20193;-82
2022/01/17 05:06:49;;;;;;;12.43;5.77;;;;;;;-145.69;100.00;73870.59;5134966;27;20289;-81
2022/01/17 05:09:17;;;;;;;8.80;5.10;;;;;;;-145.69;100.00;73876.56;5134846;27;20656;-81
2022/01/17 05:11:44;;;;;;;12.50;5.93;;;;;;;-145.69;100.00;73880.53;5134944;27;20208;-81
2022/01/17 05:14:10;;;;;;;8.17;5.00;;;;;;;-145.69;100.00;73874.56;5134626;27;20201;-81
2022/01/17 05:16:42;;;;;;;10.13;5.20;;;;;;;-145.69;100.00;73860.63;5134831;27;20196;-81
2022/01/17 05:21:53;;;;;;;10.73;5.70;;;;;;;-145.69;100.00;73868.59;5134729;27;20195;-82
2022/01/17 05:24:21;;;;;;;12.57;6.53;;;;;;;-145.69;100.00;73870.59;5134559;27;20204;-81
2022/01/17 05:26:47;;;;;;;12.27;5.63;;;;;;;-145.69;100.00;73890.50;5134671;27;20225;-81
2022/01/17 05:29:14;;;;;;;15.80;6.23;;;;;;;-145.69;100.00;73888.50;5134348;27;20708;-82
2022/01/17 05:31:40;;;;;;;14.33;5.37;;;;;;;-145.69;100.00;73878.56;5134502;27;20220;-82
2022/01/17 05:34:07;;;;;;;12.70;6.10;;;;;;;-145.69;100.00;73878.56;5134318;27;20201;-82
2022/01/17 05:36:33;;;;;;;15.93;5.87;;;;;;;-145.69;100.00;73872.56;5134152;27;20703;-82
2022/01/17 05:39:00;;;;;;;13.27;5.97;;;;;;;-145.69;100.00;73866.59;5134195;27;20196;-81
2022/01/17 05:41:28;;;;;;;9.00;5.27;;;;;;;-145.69;100.00;73866.59;5134705;27;20205;-81
2022/01/17 05:43:54;;;;;;;10.03;5.97;;;;;;;-145.69;100.00;73852.66;5134563;27;20219;-81
2022/01/17 05:46:20;;;;;;;15.93;7.63;;;;;;;-145.69;100.00;73844.69;5134332;27;20602;-81
2022/01/17 05:48:47;;;;;;;19.10;7.40;;;;;;;-145.69;100.00;73852.66;5133856;27;20698;-81
2022/01/17 05:51:13;;;;;;;16.30;6.53;;;;;;;-145.69;100.00;73854.66;5134167;27;20205;-81
2022/01/17 05:53:40;;;;;;;13.83;6.00;;;;;;;-145.69;100.00;73846.69;5133841;27;20208;-81
2022/01/17 05:56:06;;;;;;;13.13;5.77;;;;;;;-145.69;100.00;73854.66;5134092;27;20605;-81
2022/01/17 05:58:34;;;;;;;14.87;5.07;;;;;;;-145.69;100.00;73850.69;5134009;27;20261;-81
2022/01/17 06:01:01;;;;;;;14.17;5.37;;;;;;;-145.69;100.00;73852.66;5133818;27;20197;-81
2022/01/17 06:03:27;;;;;;;13.20;5.43;;;;;;;-145.69;100.00;73854.66;5133830;27;20201;-81
2022/01/17 06:05:54;;;;;;;13.57;5.83;;;;;;;-145.69;100.00;73862.63;5133894;27;20201;-81
2022/01/17 06:08:20;;;;;;;11.03;5.50;;;;;;;-145.69;100.00;73856.66;5133739;27;20228;-82
2022/01/17 06:10:47;;;;;;;16.10;5.70;;;;;;;-145.69;100.00;73850.69;5133664;27;20196;-81
2022/01/17 06:13:13;;;;;;;10.93;5.33;;;;;;;-145.69;100.00;73842.72;5133938;27;20196;-82
2022/01/17 06:15:41;;;;;;;14.50;6.97;;;;;;;-145.69;100.00;73848.69;5133736;27;20639;-82
2022/01/17 06:18:07;;;;;;;17.50;7.37;;;;;;;-145.69;100.00;73844.69;5133793;28;20364;-83
2022/01/17 06:20:34;;;;;;;12.63;5.60;;;;;;;-145.69;100.00;73840.72;5133641;28;20228;-81
2022/01/17 06:23:00;;;;;;;15.50;6.17;;;;;;;-145.69;100.00;73848.69;5133691;28;20196;-81
2022/01/17 06:25:26;;;;;;;11.10;5.50;;;;;;;-145.69;100.00;73844.69;5116970;28;20251;-81
2022/01/17 06:27:53;;;;;;;12.13;5.20;;;;;;;-145.69;100.00;73836.75;5113408;28;20232;-81
2022/01/17 06:30:19;;;;;;;9.33;4.53;;;;;;;-145.69;100.00;73822.81;5113127;28;20686;-81
2022/01/17 06:32:47;;;;;;;11.83;4.73;;;;;;;-145.69;100.00;73822.81;5113725;28;20201;-81
2022/01/17 06:35:14;;;;;;;10.93;4.97;;;;;;;-145.69;100.00;73832.75;5113618;28;20208;-82
2022/01/17 06:37:41;;;;;;;9.13;4.90;;;;;;;-145.69;100.00;73840.72;5113111;28;20237;-81
2022/01/17 06:40:09;;;;;;;10.00;4.87;;;;;;;-145.69;100.00;73830.75;5113339;28;20201;-82
2022/01/17 06:42:36;;;;;;;14.67;6.37;;;;;;;-145.69;100.00;73826.78;5113190;28;20533;-81
2022/01/17 06:45:04;;;;;;;13.13;6.27;;;;;;;-145.69;100.00;73838.72;5113170;28;20200;-81
2022/01/17 06:47:30;;;;;;;12.93;6.10;;;;;;;-145.69;100.00;73834.75;5113258;28;20703;-81
2022/01/17 06:49:58;;;;;;;14.30;6.07;;;;;;;-145.69;100.00;73844.69;5112773;28;20204;-82
2022/01/17 06:52:25;;;;;;;9.23;5.00;;;;;;;-145.69;100.00;73850.69;5113023;28;20656;-81
2022/01/17 06:54:52;;;;;;;10.70;5.50;;;;;;;-145.69;100.00;73842.72;5113325;28;20201;-82
2022/01/17 06:57:19;;;;;;;12.13;5.20;;;;;;;-145.69;100.00;73836.75;5113083;28;20243;-82
2022/01/17 06:59:46;;;;;;;7.60;4.60;;;;;;;-145.69;100.00;73842.72;5112995;28;20204;-82
2022/01/17 07:02:12;;;;;;;9.67;4.90;;;;;;;-145.69;100.00;73842.72;5116533;28;20205;-81
2022/01/17 07:04:38;;;;;;;12.10;6.07;;;;;;;-145.69;100.00;73844.69;5116573;28;20434;-82
2022/01/17 07:07:06;;;;;;;10.37;5.10;;;;;;;-145.69;100.00;73852.66;5116679;28;20660;-82
2022/01/17 07:09:33;;;;;;;9.57;4.83;;;;;;;-145.69;100.00;73846.69;5116900;28;20561;-81
2022/01/17 07:11:59;;;;;;;9.93;4.73;;;;;;;-145.69;100.00;73850.69;5117008;28;20197;-82
2022/01/17 07:14:27;;;;;;;10.43;4.47;;;;;;;-145.69;100.00;73854.66;5116684;28;20250;-81
2022/01/17 07:16:53;;;;;;;11.20;4.70;;;;;;;-145.69;100.00;73864.63;5121955;27;20189;-82
2022/01/17 07:19:20;;;;;;;8.03;4.47;;;;;;;-145.69;100.00;73872.56;5137227;27;20208;-82
2022/01/17 07:21:46;;;;;;;9.17;4.83;;;;;;;-145.69;100.00;73896.47;5137027;27;20720;-81
2022/01/17 07:24:14;;;;;;;9.00;4.47;;;;;;;-145.69;100.00;73896.47;5137248;27;20204;-81
2022/01/17 07:26:40;;;;;;;14.50;4.53;;;;;;;-145.69;100.00;73910.41;5137144;27;20201;-82
2022/01/17 07:29:08;;;;;;;10.53;4.57;;;;;;;-145.69;100.00;73914.38;5136916;27;20255;-81
2022/01/17 07:31:34;;;;;;;8.57;4.40;;;;;;;-145.69;100.00;73922.34;5136900;27;20216;-81
2022/01/17 07:34:01;;;;;;;10.67;4.80;;;;;;;-145.69;100.00;73930.31;5137008;27;20205;-81
2022/01/17 07:36:27;;;;;;;10.60;4.70;;;;;;;-145.69;100.00;73922.34;5136768;27;20231;-83
2022/01/17 07:38:54;;;;;;;7.97;4.43;;;;;;;-145.69;100.00;73906.44;5136904;27;20203;-83
2022/01/17 07:41:25;;;;;;;12.47;4.23;;;;;;;-145.69;100.00;73918.38;5136650;27;20246;-83
2022/01/17 07:43:54;;;;;;;11.00;6.30;;;;;;;-145.69;100.00;73910.41;5136654;27;20205;-81
2022/01/17 07:46:25;;;;;;;12.47;5.47;;;;;;;-145.69;100.00;73914.38;5136605;27;20208;-81
2022/01/17 07:49:09;;;;;;;12.80;4.63;;;;;;;-145.69;100.00;73910.41;5136601;27;20311;-81
2022/01/17 07:51:43;;;;;;;8.90;4.63;;;;;;;-145.69;100.00;73906.44;5136712;27;20201;-81
2022/01/17 07:54:15;;;;;;;7.30;3.93;;;;;;;-145.69;100.00;73920.38;5136667;27;20227;-81
2022/01/17 07:56:48;;;;;;;8.23;4.17;;;;;;;-145.69;100.00;73930.31;5135849;27;20716;-81
2022/01/17 07:59:17;;;;;;;10.17;5.10;;;;;;;-145.69;100.00;73924.34;5136552;27;20196;-81
2022/01/17 08:01:44;;;;;;;13.43;5.20;;;;;;;-145.69;100.00;73922.34;5136444;27;20197;-81
2022/01/17 08:04:13;;;;;;;14.40;5.60;;;;;;;-145.69;100.00;73914.38;5136193;27;20211;-81
2022/01/17 08:06:43;;;;;;;7.70;4.00;;;;;;;-145.69;100.00;73890.50;5136245;27;20643;-81
2022/01/17 08:09:12;;;;;;;9.00;5.03;;;;;;;-145.69;100.00;73888.50;5135950;27;20231;-80
2022/01/17 08:11:39;;;;;;;10.17;4.63;;;;;;;-145.69;100.00;73878.56;5135761;27;20204;-80
2022/01/17 08:14:07;;;;;;;9.00;4.40;;;;;;;-145.69;100.00;73870.59;5135711;27;20203;-80
2022/01/17 08:16:38;;;;;;;8.83;4.63;;;;;;;-145.69;100.00;73882.53;5135959;27;20227;-81
2022/01/17 08:19:07;;;;;;;9.37;5.33;;;;;;;-145.69;100.00;73874.56;5136074;27;20197;-81
2022/01/17 08:21:35;;;;;;;10.57;5.17;;;;;;;-145.69;100.00;73854.66;5135668;27;20201;-81
2022/01/17 08:24:01;;;;;;;14.07;6.07;;;;;;;-145.69;100.00;73840.72;5135983;27;20208;-81
2022/01/17 08:26:28;;;;;;;12.30;5.50;;;;;;;-145.69;100.00;73826.78;5135978;27;20200;-81
2022/01/17 08:28:54;;;;;;;10.77;5.10;;;;;;;-145.69;100.00;73842.72;5135900;27;20228;-81
2022/01/17 08:31:22;;;;;;;14.40;6.33;;;;;;;-145.69;100.00;73844.69;5129918;27;20202;-80
2022/01/17 08:33:49;;;;;;;12.63;5.80;;;;;;;-145.69;100.00;73848.69;5115110;28;20205;-81
2022/01/17 08:36:19;;;;;;;15.27;7.00;;;;;;;-145.69;100.00;73830.75;5114846;28;20600;-81
2022/01/17 08:38:45;;;;;;;12.50;6.27;;;;;;;-145.69;100.00;73820.81;5115075;28;20193;-82
2022/01/17 08:41:12;;;;;;;11.67;5.93;;;;;;;-145.69;100.00;73812.84;5115033;28;20212;-81
2022/01/17 08:43:38;;;;;;;13.63;5.43;;;;;;;-145.69;100.00;73812.84;5115003;28;20205;-82
2022/01/17 08:46:07;;;;;;;10.73;5.13;;;;;;;-145.69;100.00;73820.81;5114911;28;20197;-82
2022/01/17 08:48:36;;;;;;;8.97;4.47;;;;;;;-145.69;100.00;73826.78;5114699;28;20229;-83
2022/01/17 08:51:02;;;;;;;8.43;4.00;;;;;;;-145.69;100.00;73820.81;5114640;28;20205;-80
2022/01/17 08:53:29;;;;;;;8.70;4.30;;;;;;;-145.69;100.00;73814.84;5114878;28;20201;-82
2022/01/17 08:55:55;;;;;;;8.50;4.50;;;;;;;-145.69;100.00;73814.84;5114812;28;20586;-84
2022/01/17 08:58:22;;;;;;;9.63;3.90;;;;;;;-145.69;100.00;73814.84;5114652;28;20197;-82
2022/01/17 09:00:49;;;;;;;6.70;3.37;;;;;;;-145.69;100.00;73820.81;5114575;28;20254;-81
2022/01/17 09:03:16;;;;;;;6.33;3.10;;;;;;;-145.69;100.00;73824.78;5114674;28;20202;-81
2022/01/17 09:05:44;;;;;;;5.23;2.73;;;;;;;-145.69;100.00;73824.78;5114686;28;20212;-80
2022/01/17 09:08:11;;;;;;;4.57;2.90;;;;;;;-145.69;100.00;73830.75;5114558;28;20225;-80
2022/01/17 09:10:38;;;;;;;5.50;2.93;;;;;;;-145.69;100.00;73834.75;5114339;28;20312;-80
2022/01/17 09:13:07;;;;;;;6.37;3.17;;;;;;;-145.69;100.00;73846.69;5114402;28;20197;-79
2022/01/17 09:15:33;;;;;;;4.87;2.87;;;;;;;-145.69;100.00;73844.69;5114198;28;20206;-80
2022/01/17 09:18:00;;;;;;;5.27;3.10;;;;;;;-145.69;100.00;73848.69;5129022;27;20197;-80
2022/01/17 09:20:26;;;;;;;7.23;3.40;;;;;;;-145.69;100.00;73842.72;5134923;27;20272;-80
2022/01/17 09:22:54;;;;;;;5.37;2.63;;;;;;;-145.69;100.00;73834.75;5134724;27;20200;-80
2022/01/17 09:25:20;;;;;;;7.73;3.60;;;;;;;-145.69;100.00;73832.75;5134636;27;20632;-80
2022/01/17 09:27:47;;;;;;;6.37;3.40;;;;;;;-145.69;100.00;73834.75;5134258;27;20528;-80
2022/01/17 09:30:15;;;;;;;6.07;3.23;;;;;;;-145.69;100.00;73834.75;5134332;27;20204;-80
2022/01/17 09:32:42;;;;;;;6.70;3.43;;;;;;;-145.69;100.00;73838.72;5133277;27;20199;-80
2022/01/17 09:35:11;;;;;;;7.87;3.13;;;;;;;-145.69;100.00;73838.72;5132642;27;20209;-80
2022/01/17 09:37:38;;;;;;;8.57;3.60;;;;;;;-145.69;100.00;73846.69;5131226;27;20315;-79
2022/01/17 09:40:09;;;;;;;5.70;3.07;;;;;;;-145.69;100.00;73854.66;5131130;27;20813;-80
2022/01/17 09:42:39;;;;;;;4.90;2.30;;;;;;;-145.69;100.00;73836.75;5128700;27;20246;-79
2022/01/17 09:45:08;;;;;;;6.43;3.00;;;;;;;-145.69;100.00;73852.66;5131732;27;20204;-79
2022/01/17 09:47:36;;;;;;;6.00;3.10;;;;;;;-145.69;100.00;73840.72;5132412;27;20196;-79
2022/01/17 09:50:06;;;;;;;5.97;2.70;;;;;;;-145.69;100.00;73826.78;5132899;27;20312;-79
2022/01/17 09:52:36;;;;;;;7.30;3.20;;;;;;;-145.69;100.00;73814.84;5132708;27;20647;-79
2022/01/17 09:55:10;;;;;;;4.17;2.60;;;;;;;-145.69;100.00;73814.84;5132712;27;20701;-79
2022/01/17 09:57:42;;;;;;;5.07;2.70;;;;;;;-145.69;100.00;73814.84;5130739;27;20200;-79
2022/01/17 10:00:10;;;;;;;4.30;2.37;;;;;;;-145.69;100.00;73810.84;5134150;27;20601;-79
2022/01/17 10:02:37;;;;;;;6.57;2.70;;;;;;;-145.69;100.00;73806.88;5133874;27;20201;-79
2022/01/17 10:05:06;;;;;;;4.97;2.20;;;;;;;-145.69;100.00;73775.00;5134129;27;20200;-79
2022/01/17 10:07:53;;;;;;;6.03;2.17;;;;;;;-145.69;100.00;73786.97;5134032;27;20237;-79
2022/01/17 10:10:39;;;;;;;3.63;2.00;;;;;;;-145.69;100.00;73796.91;5134040;27;20266;-79
2022/01/17 10:13:08;;;;;;;6.37;2.43;;;;;;;-145.69;100.00;73767.06;5134316;27;20207;-79
2022/01/17 10:15:45;;;;;;;4.47;2.60;;;;;;;-145.69;100.00;73757.09;5133638;27;20204;-79
2022/01/17 10:18:25;;;;;;;5.17;2.73;;;;;;;-145.69;100.00;73759.09;5133689;27;20769;-79
2022/01/17 10:20:56;;;;;;;5.93;2.50;;;;;;;-145.69;100.00;73771.03;5132908;28;20204;-79
2022/01/17 10:23:40;;;;;;;4.77;2.50;;;;;;;-145.69;100.00;73779.00;5134138;28;20204;-79
2022/01/17 10:26:16;;;;;;;4.87;1.77;;;;;;;-145.69;100.00;73769.03;5129433;28;20192;-79
2022/01/17 10:29:04;;;;;;;5.07;2.60;;;;;;;-145.69;100.00;73737.19;5133631;28;20266;-78
2022/01/17 10:37:06;;;;;;;5.90;2.40;;;;;;;-145.69;100.00;73753.13;5137319;27;20243;-78
2022/01/17 10:39:37;;;;;;;3.23;1.60;;;;;;;-145.69;100.00;73731.22;5138205;27;20253;-79
2022/01/17 10:42:24;;;;;;;1.97;1.57;;;;;;;-145.69;100.00;73747.13;5137869;27;20647;-78
2022/01/17 10:44:54;;;;;;;3.43;1.93;;;;;;;-145.69;100.00;73755.09;5137968;27;20197;-78
2022/01/17 10:47:24;;;;;;;1.83;1.43;;;;;;;-145.69;100.00;73761.06;5137692;27;20201;-79
2022/01/17 10:49:55;;;;;;;4.60;1.93;;;;;;;-145.69;100.00;73759.09;5137855;27;20224;-78
2022/01/17 10:52:33;;;;;;;5.10;3.20;;;;;;;-145.69;100.00;73775.00;5137751;27;20204;-78
2022/01/17 10:55:04;;;;;;;3.73;2.30;;;;;;;-145.69;100.00;73755.09;5137736;27;20200;-78
2022/01/17 10:57:45;;;;;;;3.87;2.10;;;;;;;-145.69;100.00;73773.03;5137588;27;20678;-78
2022/01/17 11:00:14;;;;;;;4.93;2.50;;;;;;;-145.69;100.00;73782.97;5137421;27;20196;-78
2022/01/17 11:02:46;;;;;;;4.23;2.63;;;;;;;-145.69;100.00;73796.91;5137467;27;20283;-78
2022/01/17 11:05:14;;;;;;;7.07;2.37;;;;;;;-145.69;100.00;73794.94;5136080;27;20651;-78
2022/01/17 11:07:46;;;;;;;3.27;1.90;;;;;;;-145.69;100.00;73794.94;5137550;27;20600;-77
2022/01/17 11:10:18;;;;;;;5.23;3.57;;;;;;;-145.69;100.00;73792.94;5137096;27;20228;-77
2022/01/17 11:12:47;;;;;;;5.17;2.63;;;;;;;-145.69;100.00;73775.00;5137516;27;20197;-78
2022/01/17 11:15:15;;;;;;;5.07;2.83;;;;;;;-145.69;100.00;73759.09;5137368;27;20197;-78
2022/01/17 11:17:49;;;;;;;3.47;2.50;;;;;;;-145.69;100.00;73745.16;5137296;27;20196;-77
2022/01/17 11:20:18;;;;;;;4.83;2.63;;;;;;;-145.69;100.00;73739.19;5137295;27;20201;-77
2022/01/17 11:22:46;;;;;;;4.97;2.30;;;;;;;-145.69;100.00;73743.16;5137037;27;20291;-78
2022/01/17 11:25:18;;;;;;;5.97;3.00;;;;;;;-145.69;100.00;73769.03;5137280;27;20201;-77
2022/01/17 11:27:49;;;;;;;5.70;2.80;;;;;;;-145.69;100.00;73781.00;5137255;27;20201;-77
2022/01/17 11:30:16;;;;;;;6.83;3.40;;;;;;;-145.69;100.00;73777.00;5137029;27;20235;-77
2022/01/17 11:32:45;;;;;;;4.60;2.67;;;;;;;-145.69;100.00;73765.06;5136879;27;20201;-78